sensor_id;sensor_type;location;lat;lon;timestamp;P1;durP1;ratioP1;P2;durP2;ratioP2
20357;SDS011;75325;47.812;13.026;2024-01-30T00:00:50;18.58;;;8.93;;
20357;SDS011;75325;47.812;13.026;2024-01-30T00:03:18;15.50;;;6.22;;
20357;SDS011;75325;47.812;13.026;2024-01-30T00:05:47;18.00;;;7.13;;
20357;SDS011;75325;47.812;13.026;2024-01-30T00:08:17;23.63;;;7.15;;
20357;SDS011;75325;47.812;13.026;2024-01-30T00:10:45;13.57;;;6.75;;
20357;SDS011;75325;47.812;13.026;2024-01-30T00:13:13;16.95;;;7.80;;
20357;SDS011;75325;47.812;13.026;2024-01-30T00:15:44;18.38;;;7.50;;
20357;SDS011;75325;47.812;13.026;2024-01-30T00:18:12;24.42;;;7.60;;
20357;SDS011;75325;47.812;13.026;2024-01-30T00:20:40;19.33;;;7.68;;
20357;SDS011;75325;47.812;13.026;2024-01-30T00:23:09;16.30;;;6.82;;
20357;SDS011;75325;47.812;13.026;2024-01-30T00:25:39;22.83;;;7.72;;
20357;SDS011;75325;47.812;13.026;2024-01-30T00:28:07;25.95;;;8.82;;
20357;SDS011;75325;47.812;13.026;2024-01-30T00:30:36;15.52;;;7.80;;
20357;SDS011;75325;47.812;13.026;2024-01-30T00:33:04;19.58;;;8.18;;
20357;SDS011;75325;47.812;13.026;2024-01-30T00:35:32;19.25;;;7.63;;
20357;SDS011;75325;47.812;13.026;2024-01-30T00:38:01;20.40;;;8.80;;
20357;SDS011;75325;47.812;13.026;2024-01-30T00:40:29;28.17;;;9.05;;
20357;SDS011;75325;47.812;13.026;2024-01-30T00:42:59;15.60;;;7.50;;
20357;SDS011;75325;47.812;13.026;2024-01-30T00:45:27;23.13;;;9.43;;
20357;SDS011;75325;47.812;13.026;2024-01-30T00:47:55;19.13;;;8.65;;
20357;SDS011;75325;47.812;13.026;2024-01-30T00:50:24;20.80;;;9.25;;
20357;SDS011;75325;47.812;13.026;2024-01-30T00:52:52;26.65;;;9.23;;
20357;SDS011;75325;47.812;13.026;2024-01-30T00:55:20;19.73;;;8.70;;
20357;SDS011;75325;47.812;13.026;2024-01-30T00:57:49;22.17;;;9.88;;
20357;SDS011;75325;47.812;13.026;2024-01-30T01:00:19;34.65;;;8.65;;
20357;SDS011;75325;47.812;13.026;2024-01-30T01:02:47;24.17;;;9.93;;
20357;SDS011;75325;47.812;13.026;2024-01-30T01:05:16;27.60;;;8.43;;
20357;SDS011;75325;47.812;13.026;2024-01-30T01:07:45;24.55;;;8.50;;
20357;SDS011;75325;47.812;13.026;2024-01-30T01:10:14;25.05;;;9.90;;
20357;SDS011;75325;47.812;13.026;2024-01-30T01:12:44;31.63;;;9.02;;
20357;SDS011;75325;47.812;13.026;2024-01-30T01:15:12;39.75;;;12.32;;
20357;SDS011;75325;47.812;13.026;2024-01-30T01:17:42;27.10;;;9.10;;
20357;SDS011;75325;47.812;13.026;2024-01-30T01:20:11;27.58;;;9.85;;
20357;SDS011;75325;47.812;13.026;2024-01-30T01:22:39;20.80;;;10.20;;
20357;SDS011;75325;47.812;13.026;2024-01-30T01:25:08;24.13;;;10.52;;
20357;SDS011;75325;47.812;13.026;2024-01-30T01:27:37;22.45;;;10.30;;
20357;SDS011;75325;47.812;13.026;2024-01-30T01:30:08;25.33;;;8.65;;
20357;SDS011;75325;47.812;13.026;2024-01-30T01:32:38;28.00;;;9.55;;
20357;SDS011;75325;47.812;13.026;2024-01-30T01:35:13;37.53;;;8.85;;
20357;SDS011;75325;47.812;13.026;2024-01-30T01:37:41;19.50;;;9.27;;
20357;SDS011;75325;47.812;13.026;2024-01-30T01:40:10;24.45;;;8.32;;
20357;SDS011;75325;47.812;13.026;2024-01-30T01:42:38;22.33;;;8.30;;
20357;SDS011;75325;47.812;13.026;2024-01-30T01:45:07;17.80;;;8.07;;
20357;SDS011;75325;47.812;13.026;2024-01-30T01:47:36;19.38;;;8.88;;
20357;SDS011;75325;47.812;13.026;2024-01-30T01:50:05;20.73;;;9.10;;
20357;SDS011;75325;47.812;13.026;2024-01-30T01:52:35;18.33;;;7.90;;
20357;SDS011;75325;47.812;13.026;2024-01-30T01:55:05;30.10;;;9.38;;
20357;SDS011;75325;47.812;13.026;2024-01-30T01:57:37;19.27;;;7.90;;
20357;SDS011;75325;47.812;13.026;2024-01-30T02:00:06;22.58;;;8.57;;
20357;SDS011;75325;47.812;13.026;2024-01-30T02:02:37;18.88;;;7.53;;
20357;SDS011;75325;47.812;13.026;2024-01-30T02:05:07;23.38;;;8.77;;
20357;SDS011;75325;47.812;13.026;2024-01-30T02:07:37;20.02;;;8.57;;
20357;SDS011;75325;47.812;13.026;2024-01-30T02:10:07;20.33;;;9.00;;
20357;SDS011;75325;47.812;13.026;2024-01-30T02:12:36;24.30;;;9.35;;
20357;SDS011;75325;47.812;13.026;2024-01-30T02:15:05;20.08;;;8.35;;
20357;SDS011;75325;47.812;13.026;2024-01-30T02:17:34;21.80;;;9.20;;
20357;SDS011;75325;47.812;13.026;2024-01-30T02:20:03;15.65;;;7.30;;
20357;SDS011;75325;47.812;13.026;2024-01-30T02:22:33;26.88;;;9.82;;
20357;SDS011;75325;47.812;13.026;2024-01-30T02:25:03;24.80;;;9.88;;
20357;SDS011;75325;47.812;13.026;2024-01-30T02:27:31;23.10;;;9.40;;
20357;SDS011;75325;47.812;13.026;2024-01-30T02:30:00;16.58;;;8.50;;
20357;SDS011;75325;47.812;13.026;2024-01-30T02:32:28;17.08;;;8.02;;
20357;SDS011;75325;47.812;13.026;2024-01-30T02:34:57;16.58;;;8.48;;
20357;SDS011;75325;47.812;13.026;2024-01-30T02:37:25;13.57;;;7.32;;
20357;SDS011;75325;47.812;13.026;2024-01-30T02:39:55;18.65;;;8.00;;
20357;SDS011;75325;47.812;13.026;2024-01-30T02:42:23;16.65;;;7.65;;
20357;SDS011;75325;47.812;13.026;2024-01-30T02:44:51;21.73;;;8.73;;
20357;SDS011;75325;47.812;13.026;2024-01-30T02:47:19;28.83;;;8.07;;
20357;SDS011;75325;47.812;13.026;2024-01-30T02:49:48;24.95;;;9.20;;
20357;SDS011;75325;47.812;13.026;2024-01-30T02:52:21;19.83;;;8.70;;
20357;SDS011;75325;47.812;13.026;2024-01-30T02:54:49;24.33;;;8.48;;
20357;SDS011;75325;47.812;13.026;2024-01-30T02:57:19;21.67;;;8.77;;
20357;SDS011;75325;47.812;13.026;2024-01-30T02:59:47;17.30;;;8.25;;
20357;SDS011;75325;47.812;13.026;2024-01-30T03:02:16;16.27;;;7.28;;
20357;SDS011;75325;47.812;13.026;2024-01-30T03:04:44;30.05;;;9.50;;
20357;SDS011;75325;47.812;13.026;2024-01-30T03:07:12;26.05;;;9.00;;
20357;SDS011;75325;47.812;13.026;2024-01-30T03:09:41;22.50;;;9.13;;
20357;SDS011;75325;47.812;13.026;2024-01-30T03:12:09;17.27;;;7.00;;
20357;SDS011;75325;47.812;13.026;2024-01-30T03:14:39;20.23;;;9.05;;
20357;SDS011;75325;47.812;13.026;2024-01-30T03:17:07;18.85;;;7.95;;
20357;SDS011;75325;47.812;13.026;2024-01-30T03:19:35;24.40;;;7.78;;
20357;SDS011;75325;47.812;13.026;2024-01-30T03:22:04;41.13;;;8.73;;
20357;SDS011;75325;47.812;13.026;2024-01-30T03:24:32;27.67;;;9.80;;
20357;SDS011;75325;47.812;13.026;2024-01-30T03:27:00;27.70;;;8.73;;
20357;SDS011;75325;47.812;13.026;2024-01-30T03:29:29;20.08;;;7.82;;
20357;SDS011;75325;47.812;13.026;2024-01-30T03:31:58;23.25;;;8.00;;
20357;SDS011;75325;47.812;13.026;2024-01-30T03:34:26;17.65;;;7.07;;
20357;SDS011;75325;47.812;13.026;2024-01-30T03:36:55;36.00;;;7.93;;
20357;SDS011;75325;47.812;13.026;2024-01-30T03:39:24;17.15;;;8.60;;
20357;SDS011;75325;47.812;13.026;2024-01-30T03:41:52;29.42;;;9.02;;
20357;SDS011;75325;47.812;13.026;2024-01-30T03:44:20;21.60;;;8.45;;
20357;SDS011;75325;47.812;13.026;2024-01-30T03:46:49;27.90;;;10.02;;
20357;SDS011;75325;47.812;13.026;2024-01-30T03:49:19;40.30;;;9.30;;
20357;SDS011;75325;47.812;13.026;2024-01-30T03:51:47;27.10;;;8.55;;
20357;SDS011;75325;47.812;13.026;2024-01-30T03:54:16;25.15;;;10.15;;
20357;SDS011;75325;47.812;13.026;2024-01-30T03:56:44;26.15;;;9.73;;
20357;SDS011;75325;47.812;13.026;2024-01-30T03:59:12;19.48;;;8.63;;
20357;SDS011;75325;47.812;13.026;2024-01-30T04:01:41;21.75;;;8.70;;
20357;SDS011;75325;47.812;13.026;2024-01-30T04:04:09;28.60;;;11.63;;
20357;SDS011;75325;47.812;13.026;2024-01-30T04:06:39;14.00;;;7.28;;
20357;SDS011;75325;47.812;13.026;2024-01-30T04:09:07;17.85;;;8.70;;
20357;SDS011;75325;47.812;13.026;2024-01-30T04:11:36;22.83;;;8.07;;
20357;SDS011;75325;47.812;13.026;2024-01-30T04:14:04;36.20;;;13.73;;
20357;SDS011;75325;47.812;13.026;2024-01-30T04:16:32;20.38;;;7.70;;
20357;SDS011;75325;47.812;13.026;2024-01-30T04:19:01;27.35;;;9.93;;
20357;SDS011;75325;47.812;13.026;2024-01-30T04:21:29;23.60;;;7.13;;
20357;SDS011;75325;47.812;13.026;2024-01-30T04:23:59;23.40;;;10.48;;
20357;SDS011;75325;47.812;13.026;2024-01-30T04:26:27;24.40;;;7.35;;
20357;SDS011;75325;47.812;13.026;2024-01-30T04:28:55;8.95;;;5.55;;
20357;SDS011;75325;47.812;13.026;2024-01-30T04:31:23;13.63;;;5.50;;
20357;SDS011;75325;47.812;13.026;2024-01-30T04:33:52;23.52;;;8.90;;
20357;SDS011;75325;47.812;13.026;2024-01-30T04:36:20;25.50;;;9.68;;
20357;SDS011;75325;47.812;13.026;2024-01-30T04:38:48;11.48;;;6.35;;
20357;SDS011;75325;47.812;13.026;2024-01-30T04:41:18;28.40;;;6.78;;
20357;SDS011;75325;47.812;13.026;2024-01-30T04:43:46;27.35;;;7.40;;
20357;SDS011;75325;47.812;13.026;2024-01-30T04:46:15;22.67;;;7.10;;
20357;SDS011;75325;47.812;13.026;2024-01-30T04:48:44;59.00;;;15.27;;
20357;SDS011;75325;47.812;13.026;2024-01-30T04:51:12;12.73;;;4.93;;
20357;SDS011;75325;47.812;13.026;2024-01-30T04:53:41;4.72;;;3.47;;
20357;SDS011;75325;47.812;13.026;2024-01-30T04:56:09;12.45;;;4.82;;
20357;SDS011;75325;47.812;13.026;2024-01-30T04:58:39;6.50;;;3.72;;
20357;SDS011;75325;47.812;13.026;2024-01-30T05:01:07;15.38;;;5.28;;
20357;SDS011;75325;47.812;13.026;2024-01-30T05:03:36;8.95;;;4.20;;
20357;SDS011;75325;47.812;13.026;2024-01-30T05:06:05;27.00;;;6.80;;
20357;SDS011;75325;47.812;13.026;2024-01-30T05:08:35;32.00;;;7.40;;
20357;SDS011;75325;47.812;13.026;2024-01-30T05:11:04;17.50;;;7.30;;
20357;SDS011;75325;47.812;13.026;2024-01-30T05:13:33;21.60;;;7.55;;
20357;SDS011;75325;47.812;13.026;2024-01-30T05:16:03;30.63;;;7.68;;
20357;SDS011;75325;47.812;13.026;2024-01-30T05:18:32;3.83;;;2.25;;
20357;SDS011;75325;47.812;13.026;2024-01-30T05:21:01;8.90;;;4.50;;
20357;SDS011;75325;47.812;13.026;2024-01-30T05:23:30;7.68;;;3.45;;
20357;SDS011;75325;47.812;13.026;2024-01-30T05:25:59;5.22;;;3.47;;
20357;SDS011;75325;47.812;13.026;2024-01-30T05:28:28;6.50;;;3.53;;
20357;SDS011;75325;47.812;13.026;2024-01-30T05:30:57;20.90;;;6.32;;
20357;SDS011;75325;47.812;13.026;2024-01-30T05:33:27;11.60;;;4.55;;
20357;SDS011;75325;47.812;13.026;2024-01-30T05:35:56;11.80;;;5.30;;
20357;SDS011;75325;47.812;13.026;2024-01-30T05:38:24;13.43;;;5.45;;
20357;SDS011;75325;47.812;13.026;2024-01-30T05:40:52;9.77;;;4.50;;
20357;SDS011;75325;47.812;13.026;2024-01-30T05:43:21;17.67;;;6.70;;
20357;SDS011;75325;47.812;13.026;2024-01-30T05:45:49;8.45;;;4.00;;
20357;SDS011;75325;47.812;13.026;2024-01-30T05:48:19;9.80;;;4.82;;
20357;SDS011;75325;47.812;13.026;2024-01-30T05:50:48;15.25;;;6.53;;
20357;SDS011;75325;47.812;13.026;2024-01-30T05:53:17;16.15;;;6.25;;
20357;SDS011;75325;47.812;13.026;2024-01-30T05:55:45;18.42;;;6.53;;
20357;SDS011;75325;47.812;13.026;2024-01-30T05:58:14;17.52;;;5.68;;
20357;SDS011;75325;47.812;13.026;2024-01-30T06:00:42;30.63;;;8.00;;
20357;SDS011;75325;47.812;13.026;2024-01-30T06:03:11;30.65;;;7.15;;
20357;SDS011;75325;47.812;13.026;2024-01-30T06:05:39;23.13;;;6.75;;
20357;SDS011;75325;47.812;13.026;2024-01-30T06:08:09;18.85;;;6.22;;
20357;SDS011;75325;47.812;13.026;2024-01-30T06:10:37;16.67;;;5.38;;
20357;SDS011;75325;47.812;13.026;2024-01-30T06:13:06;11.77;;;5.55;;
20357;SDS011;75325;47.812;13.026;2024-01-30T06:15:35;21.25;;;6.30;;
20357;SDS011;75325;47.812;13.026;2024-01-30T06:18:03;11.52;;;2.95;;
20357;SDS011;75325;47.812;13.026;2024-01-30T06:20:32;17.27;;;5.20;;
20357;SDS011;75325;47.812;13.026;2024-01-30T06:23:00;6.75;;;3.78;;
20357;SDS011;75325;47.812;13.026;2024-01-30T06:25:30;9.45;;;5.18;;
20357;SDS011;75325;47.812;13.026;2024-01-30T06:27:58;11.57;;;4.63;;
20357;SDS011;75325;47.812;13.026;2024-01-30T06:30:27;13.75;;;4.22;;
20357;SDS011;75325;47.812;13.026;2024-01-30T06:32:55;11.90;;;4.20;;
20357;SDS011;75325;47.812;13.026;2024-01-30T06:35:24;11.70;;;4.82;;
20357;SDS011;75325;47.812;13.026;2024-01-30T06:37:52;23.48;;;5.53;;
20357;SDS011;75325;47.812;13.026;2024-01-30T06:40:21;14.45;;;5.93;;
20357;SDS011;75325;47.812;13.026;2024-01-30T06:42:51;18.42;;;7.38;;
20357;SDS011;75325;47.812;13.026;2024-01-30T06:45:19;19.45;;;6.45;;
20357;SDS011;75325;47.812;13.026;2024-01-30T06:47:48;12.85;;;6.03;;
20357;SDS011;75325;47.812;13.026;2024-01-30T06:50:16;19.48;;;6.57;;
20357;SDS011;75325;47.812;13.026;2024-01-30T06:52:45;19.42;;;5.55;;
20357;SDS011;75325;47.812;13.026;2024-01-30T06:55:13;25.30;;;8.68;;
20357;SDS011;75325;47.812;13.026;2024-01-30T06:57:41;20.58;;;7.18;;
20357;SDS011;75325;47.812;13.026;2024-01-30T07:00:12;22.70;;;5.30;;
20357;SDS011;75325;47.812;13.026;2024-01-30T07:02:43;14.93;;;7.47;;
20357;SDS011;75325;47.812;13.026;2024-01-30T07:05:11;19.80;;;7.47;;
20357;SDS011;75325;47.812;13.026;2024-01-30T07:07:39;20.20;;;6.22;;
20357;SDS011;75325;47.812;13.026;2024-01-30T07:10:08;27.58;;;6.63;;
20357;SDS011;75325;47.812;13.026;2024-01-30T07:12:37;18.75;;;6.95;;
20357;SDS011;75325;47.812;13.026;2024-01-30T07:15:05;15.73;;;8.02;;
20357;SDS011;75325;47.812;13.026;2024-01-30T07:17:37;28.00;;;8.73;;
20357;SDS011;75325;47.812;13.026;2024-01-30T07:20:06;19.60;;;6.85;;
20357;SDS011;75325;47.812;13.026;2024-01-30T07:22:37;20.67;;;7.18;;
20357;SDS011;75325;47.812;13.026;2024-01-30T07:25:06;29.52;;;7.68;;
20357;SDS011;75325;47.812;13.026;2024-01-30T07:27:35;12.10;;;5.18;;
20357;SDS011;75325;47.812;13.026;2024-01-30T07:30:04;11.93;;;5.25;;
20357;SDS011;75325;47.812;13.026;2024-01-30T07:32:33;16.15;;;6.38;;
20357;SDS011;75325;47.812;13.026;2024-01-30T07:35:04;28.23;;;8.07;;
20357;SDS011;75325;47.812;13.026;2024-01-30T07:37:35;26.27;;;6.18;;
20357;SDS011;75325;47.812;13.026;2024-01-30T07:40:03;18.50;;;6.53;;
20357;SDS011;75325;47.812;13.026;2024-01-30T07:42:33;17.17;;;9.07;;
20357;SDS011;75325;47.812;13.026;2024-01-30T07:45:02;17.58;;;7.75;;
20357;SDS011;75325;47.812;13.026;2024-01-30T07:47:30;17.33;;;6.38;;
20357;SDS011;75325;47.812;13.026;2024-01-30T07:49:59;19.08;;;8.13;;
20357;SDS011;75325;47.812;13.026;2024-01-30T07:52:29;14.65;;;6.65;;
20357;SDS011;75325;47.812;13.026;2024-01-30T07:58:16;15.82;;;6.28;;
20357;SDS011;75325;47.812;13.026;2024-01-30T08:00:45;20.90;;;7.63;;
20357;SDS011;75325;47.812;13.026;2024-01-30T08:03:14;20.35;;;8.15;;
20357;SDS011;75325;47.812;13.026;2024-01-30T08:05:42;29.52;;;9.35;;
20357;SDS011;75325;47.812;13.026;2024-01-30T08:08:12;14.40;;;4.93;;
20357;SDS011;75325;47.812;13.026;2024-01-30T08:10:41;18.02;;;5.35;;
20357;SDS011;75325;47.812;13.026;2024-01-30T08:13:09;42.40;;;7.80;;
20357;SDS011;75325;47.812;13.026;2024-01-30T08:15:38;22.45;;;8.20;;
20357;SDS011;75325;47.812;13.026;2024-01-30T08:18:06;37.90;;;6.97;;
20357;SDS011;75325;47.812;13.026;2024-01-30T08:20:34;16.63;;;5.55;;
20357;SDS011;75325;47.812;13.026;2024-01-30T08:23:03;10.75;;;5.78;;
20357;SDS011;75325;47.812;13.026;2024-01-30T08:25:33;14.27;;;5.60;;
20357;SDS011;75325;47.812;13.026;2024-01-30T08:28:02;13.38;;;5.90;;
20357;SDS011;75325;47.812;13.026;2024-01-30T08:30:31;22.65;;;7.93;;
20357;SDS011;75325;47.812;13.026;2024-01-30T08:32:59;23.90;;;6.70;;
20357;SDS011;75325;47.812;13.026;2024-01-30T08:35:28;11.63;;;5.25;;
20357;SDS011;75325;47.812;13.026;2024-01-30T08:38:00;20.10;;;7.00;;
20357;SDS011;75325;47.812;13.026;2024-01-30T08:40:30;14.48;;;6.10;;
20357;SDS011;75325;47.812;13.026;2024-01-30T08:42:59;15.77;;;5.97;;
20357;SDS011;75325;47.812;13.026;2024-01-30T08:45:29;11.10;;;5.22;;
20357;SDS011;75325;47.812;13.026;2024-01-30T08:47:58;10.93;;;4.03;;
20357;SDS011;75325;47.812;13.026;2024-01-30T08:50:26;14.20;;;4.22;;
20357;SDS011;75325;47.812;13.026;2024-01-30T08:52:55;37.90;;;5.18;;
20357;SDS011;75325;47.812;13.026;2024-01-30T08:55:23;13.50;;;4.75;;
20357;SDS011;75325;47.812;13.026;2024-01-30T08:57:52;11.23;;;3.97;;
20357;SDS011;75325;47.812;13.026;2024-01-30T09:00:22;15.23;;;4.85;;
20357;SDS011;75325;47.812;13.026;2024-01-30T09:02:51;14.73;;;4.50;;
20357;SDS011;75325;47.812;13.026;2024-01-30T09:05:19;19.17;;;4.93;;
20357;SDS011;75325;47.812;13.026;2024-01-30T09:07:48;18.70;;;4.28;;
20357;SDS011;75325;47.812;13.026;2024-01-30T09:10:16;13.48;;;4.68;;
20357;SDS011;75325;47.812;13.026;2024-01-30T09:12:47;19.48;;;5.32;;
20357;SDS011;75325;47.812;13.026;2024-01-30T09:15:16;16.15;;;4.35;;
20357;SDS011;75325;47.812;13.026;2024-01-30T09:17:49;20.58;;;5.20;;
20357;SDS011;75325;47.812;13.026;2024-01-30T09:20:17;19.48;;;2.20;;
20357;SDS011;75325;47.812;13.026;2024-01-30T09:22:47;8.40;;;3.00;;
20357;SDS011;75325;47.812;13.026;2024-01-30T09:25:15;6.15;;;2.50;;
20357;SDS011;75325;47.812;13.026;2024-01-30T09:27:45;13.27;;;2.15;;
20357;SDS011;75325;47.812;13.026;2024-01-30T09:30:14;4.55;;;2.10;;
20357;SDS011;75325;47.812;13.026;2024-01-30T09:32:43;6.35;;;2.33;;
20357;SDS011;75325;47.812;13.026;2024-01-30T09:35:13;10.57;;;2.38;;
20357;SDS011;75325;47.812;13.026;2024-01-30T09:37:41;3.75;;;1.85;;
20357;SDS011;75325;47.812;13.026;2024-01-30T09:40:10;6.55;;;1.60;;
20357;SDS011;75325;47.812;13.026;2024-01-30T09:42:39;5.43;;;1.73;;
20357;SDS011;75325;47.812;13.026;2024-01-30T09:45:10;4.15;;;1.38;;
20357;SDS011;75325;47.812;13.026;2024-01-30T09:47:42;5.40;;;1.60;;
20357;SDS011;75325;47.812;13.026;2024-01-30T09:50:13;2.03;;;1.52;;
20357;SDS011;75325;47.812;13.026;2024-01-30T09:52:44;8.57;;;1.52;;
20357;SDS011;75325;47.812;13.026;2024-01-30T09:55:13;8.85;;;1.77;;
20357;SDS011;75325;47.812;13.026;2024-01-30T09:57:41;2.17;;;1.30;;
20357;SDS011;75325;47.812;13.026;2024-01-30T10:00:10;11.13;;;1.98;;
20357;SDS011;75325;47.812;13.026;2024-01-30T10:02:40;6.00;;;1.80;;
20357;SDS011;75325;47.812;13.026;2024-01-30T10:05:08;3.15;;;1.75;;
20357;SDS011;75325;47.812;13.026;2024-01-30T10:07:38;3.25;;;1.45;;
20357;SDS011;75325;47.812;13.026;2024-01-30T10:10:17;10.20;;;2.20;;
20357;SDS011;75325;47.812;13.026;2024-01-30T10:12:46;4.00;;;1.83;;
20357;SDS011;75325;47.812;13.026;2024-01-30T10:15:15;10.63;;;2.03;;
20357;SDS011;75325;47.812;13.026;2024-01-30T10:17:44;2.33;;;1.17;;
20357;SDS011;75325;47.812;13.026;2024-01-30T10:20:13;5.18;;;1.83;;
20357;SDS011;75325;47.812;13.026;2024-01-30T10:22:43;11.43;;;2.78;;
20357;SDS011;75325;47.812;13.026;2024-01-30T10:25:12;10.90;;;2.30;;
20357;SDS011;75325;47.812;13.026;2024-01-30T10:27:41;9.73;;;3.42;;
20357;SDS011;75325;47.812;13.026;2024-01-30T10:30:09;29.15;;;5.68;;
20357;SDS011;75325;47.812;13.026;2024-01-30T10:32:38;18.83;;;2.30;;
20357;SDS011;75325;47.812;13.026;2024-01-30T10:35:06;14.65;;;3.75;;
20357;SDS011;75325;47.812;13.026;2024-01-30T10:37:35;15.10;;;4.88;;
20357;SDS011;75325;47.812;13.026;2024-01-30T10:40:06;5.50;;;1.80;;
20357;SDS011;75325;47.812;13.026;2024-01-30T10:42:36;15.10;;;6.20;;
20357;SDS011;75325;47.812;13.026;2024-01-30T10:45:06;5.72;;;2.33;;
20357;SDS011;75325;47.812;13.026;2024-01-30T10:47:36;8.43;;;3.00;;
20357;SDS011;75325;47.812;13.026;2024-01-30T10:50:05;24.10;;;3.97;;
20357;SDS011;75325;47.812;13.026;2024-01-30T10:52:36;5.82;;;1.88;;
20357;SDS011;75325;47.812;13.026;2024-01-30T10:55:05;6.70;;;1.75;;
20357;SDS011;75325;47.812;13.026;2024-01-30T10:57:35;8.95;;;2.00;;
20357;SDS011;75325;47.812;13.026;2024-01-30T11:00:05;39.58;;;4.25;;
20357;SDS011;75325;47.812;13.026;2024-01-30T11:02:38;5.22;;;1.77;;
20357;SDS011;75325;47.812;13.026;2024-01-30T11:05:08;12.25;;;2.53;;
20357;SDS011;75325;47.812;13.026;2024-01-30T11:07:38;9.60;;;1.80;;
20357;SDS011;75325;47.812;13.026;2024-01-30T11:10:09;17.42;;;3.92;;
20357;SDS011;75325;47.812;13.026;2024-01-30T11:12:42;5.93;;;1.40;;
20357;SDS011;75325;47.812;13.026;2024-01-30T11:15:13;22.35;;;7.22;;
20357;SDS011;75325;47.812;13.026;2024-01-30T11:17:43;6.57;;;2.20;;
20357;SDS011;75325;47.812;13.026;2024-01-30T11:20:14;11.75;;;2.40;;
20357;SDS011;75325;47.812;13.026;2024-01-30T11:22:45;4.60;;;1.75;;
20357;SDS011;75325;47.812;13.026;2024-01-30T11:25:16;3.08;;;1.65;;
20357;SDS011;75325;47.812;13.026;2024-01-30T11:27:45;3.92;;;1.55;;
20357;SDS011;75325;47.812;13.026;2024-01-30T11:30:23;4.45;;;1.60;;
20357;SDS011;75325;47.812;13.026;2024-01-30T11:32:58;7.05;;;2.08;;
20357;SDS011;75325;47.812;13.026;2024-01-30T11:35:29;15.52;;;1.65;;
20357;SDS011;75325;47.812;13.026;2024-01-30T11:38:00;7.15;;;1.50;;
20357;SDS011;75325;47.812;13.026;2024-01-30T11:40:31;13.45;;;3.35;;
20357;SDS011;75325;47.812;13.026;2024-01-30T11:43:01;14.75;;;3.65;;
20357;SDS011;75325;47.812;13.026;2024-01-30T11:45:31;16.15;;;3.85;;
20357;SDS011;75325;47.812;13.026;2024-01-30T11:48:00;27.35;;;7.97;;
20357;SDS011;75325;47.812;13.026;2024-01-30T11:50:31;3.50;;;1.23;;
20357;SDS011;75325;47.812;13.026;2024-01-30T11:53:01;21.00;;;5.32;;
20357;SDS011;75325;47.812;13.026;2024-01-30T11:55:31;5.43;;;1.58;;
20357;SDS011;75325;47.812;13.026;2024-01-30T11:58:01;9.50;;;2.75;;
20357;SDS011;75325;47.812;13.026;2024-01-30T12:00:31;26.75;;;6.85;;
20357;SDS011;75325;47.812;13.026;2024-01-30T12:03:01;3.35;;;1.80;;
20357;SDS011;75325;47.812;13.026;2024-01-30T12:05:32;7.45;;;2.17;;
20357;SDS011;75325;47.812;13.026;2024-01-30T12:08:00;7.97;;;2.53;;
20357;SDS011;75325;47.812;13.026;2024-01-30T12:10:30;3.53;;;1.55;;
20357;SDS011;75325;47.812;13.026;2024-01-30T12:12:59;4.07;;;1.50;;
20357;SDS011;75325;47.812;13.026;2024-01-30T12:15:28;10.20;;;2.65;;
20357;SDS011;75325;47.812;13.026;2024-01-30T12:18:03;9.68;;;1.48;;
20357;SDS011;75325;47.812;13.026;2024-01-30T12:20:33;3.63;;;1.92;;
20357;SDS011;75325;47.812;13.026;2024-01-30T12:23:02;2.88;;;1.30;;
20357;SDS011;75325;47.812;13.026;2024-01-30T12:25:32;21.10;;;4.60;;
20357;SDS011;75325;47.812;13.026;2024-01-30T12:28:01;3.30;;;1.35;;
20357;SDS011;75325;47.812;13.026;2024-01-30T12:30:31;9.93;;;2.50;;
20357;SDS011;75325;47.812;13.026;2024-01-30T12:32:59;2.97;;;1.17;;
20357;SDS011;75325;47.812;13.026;2024-01-30T12:35:31;9.95;;;1.55;;
20357;SDS011;75325;47.812;13.026;2024-01-30T12:38:00;27.60;;;5.60;;
20357;SDS011;75325;47.812;13.026;2024-01-30T12:40:28;2.30;;;1.20;;
20357;SDS011;75325;47.812;13.026;2024-01-30T12:42:58;1.60;;;0.88;;
20357;SDS011;75325;47.812;13.026;2024-01-30T12:45:27;4.25;;;1.60;;
20357;SDS011;75325;47.812;13.026;2024-01-30T12:47:56;3.38;;;1.25;;
20357;SDS011;75325;47.812;13.026;2024-01-30T12:50:24;4.55;;;1.30;;
20357;SDS011;75325;47.812;13.026;2024-01-30T12:52:53;8.32;;;1.40;;
20357;SDS011;75325;47.812;13.026;2024-01-30T12:55:22;17.00;;;2.05;;
20357;SDS011;75325;47.812;13.026;2024-01-30T12:57:51;8.73;;;3.35;;
20357;SDS011;75325;47.812;13.026;2024-01-30T13:00:21;13.13;;;2.10;;
20357;SDS011;75325;47.812;13.026;2024-01-30T13:02:50;3.55;;;1.77;;
20357;SDS011;75325;47.812;13.026;2024-01-30T13:05:18;10.85;;;1.42;;
20357;SDS011;75325;47.812;13.026;2024-01-30T13:07:47;3.28;;;1.38;;
20357;SDS011;75325;47.812;13.026;2024-01-30T13:10:15;29.08;;;7.28;;
20357;SDS011;75325;47.812;13.026;2024-01-30T13:12:44;3.03;;;1.60;;
20357;SDS011;75325;47.812;13.026;2024-01-30T13:15:12;2.55;;;1.33;;
20357;SDS011;75325;47.812;13.026;2024-01-30T13:17:42;6.40;;;1.98;;
20357;SDS011;75325;47.812;13.026;2024-01-30T13:20:13;23.80;;;2.63;;
20357;SDS011;75325;47.812;13.026;2024-01-30T13:22:47;6.32;;;1.48;;
20357;SDS011;75325;47.812;13.026;2024-01-30T13:25:16;18.38;;;4.35;;
20357;SDS011;75325;47.812;13.026;2024-01-30T13:27:44;6.22;;;1.40;;
20357;SDS011;75325;47.812;13.026;2024-01-30T13:30:13;10.35;;;2.97;;
20357;SDS011;75325;47.812;13.026;2024-01-30T13:32:43;29.00;;;2.35;;
20357;SDS011;75325;47.812;13.026;2024-01-30T13:35:13;58.38;;;5.22;;
20357;SDS011;75325;47.812;13.026;2024-01-30T13:37:41;17.50;;;4.35;;
20357;SDS011;75325;47.812;13.026;2024-01-30T13:40:10;28.80;;;3.85;;
20357;SDS011;75325;47.812;13.026;2024-01-30T13:42:40;17.70;;;3.00;;
20357;SDS011;75325;47.812;13.026;2024-01-30T13:45:09;5.38;;;2.42;;
20357;SDS011;75325;47.812;13.026;2024-01-30T13:47:38;15.63;;;3.03;;
20357;SDS011;75325;47.812;13.026;2024-01-30T13:50:08;8.43;;;2.65;;
20357;SDS011;75325;47.812;13.026;2024-01-30T13:52:41;8.07;;;2.88;;
20357;SDS011;75325;47.812;13.026;2024-01-30T13:55:11;13.10;;;2.88;;
20357;SDS011;75325;47.812;13.026;2024-01-30T13:57:40;24.00;;;4.35;;
20357;SDS011;75325;47.812;13.026;2024-01-30T14:00:09;35.38;;;4.20;;
20357;SDS011;75325;47.812;13.026;2024-01-30T14:02:39;20.85;;;6.40;;
20357;SDS011;75325;47.812;13.026;2024-01-30T14:05:09;10.35;;;3.10;;
20357;SDS011;75325;47.812;13.026;2024-01-30T14:07:37;14.23;;;4.70;;
20357;SDS011;75325;47.812;13.026;2024-01-30T14:10:07;20.48;;;3.30;;
20357;SDS011;75325;47.812;13.026;2024-01-30T14:12:41;13.15;;;3.47;;
20357;SDS011;75325;47.812;13.026;2024-01-30T14:15:10;20.63;;;2.95;;
20357;SDS011;75325;47.812;13.026;2024-01-30T14:17:54;8.75;;;3.15;;
20357;SDS011;75325;47.812;13.026;2024-01-30T14:20:26;13.38;;;3.42;;
20357;SDS011;75325;47.812;13.026;2024-01-30T14:22:54;40.47;;;4.57;;
20357;SDS011;75325;47.812;13.026;2024-01-30T14:25:23;20.05;;;4.68;;
20357;SDS011;75325;47.812;13.026;2024-01-30T14:27:52;12.55;;;4.38;;
20357;SDS011;75325;47.812;13.026;2024-01-30T14:30:21;13.68;;;4.28;;
20357;SDS011;75325;47.812;13.026;2024-01-30T14:32:49;9.23;;;3.72;;
20357;SDS011;75325;47.812;13.026;2024-01-30T14:35:17;15.60;;;4.78;;
20357;SDS011;75325;47.812;13.026;2024-01-30T14:37:49;18.02;;;4.75;;